createdAt,value
2022-08-29T00:00:32.508Z,11.07
2022-08-29T00:03:01.311Z,11.70
2022-08-29T00:08:46.287Z,9.60
2022-08-29T00:11:13.492Z,18.85
2022-08-29T00:13:40.465Z,13.25
2022-08-29T00:16:07.516Z,20.88
2022-08-29T00:18:34.421Z,12.95
2022-08-29T00:21:01.549Z,17.00
2022-08-29T00:23:28.230Z,19.83
2022-08-29T00:25:56.220Z,12.73
2022-08-29T00:28:23.782Z,12.98
2022-08-29T00:30:50.529Z,16.75
2022-08-29T00:33:17.960Z,9.32
2022-08-29T00:35:45.512Z,14.32
2022-08-29T00:38:16.499Z,12.13
2022-08-29T00:43:24.770Z,13.93
2022-08-29T00:45:59.431Z,19.35
2022-08-29T00:48:26.604Z,15.48
2022-08-29T00:50:57.418Z,15.25
2022-08-29T00:53:30.138Z,11.73
2022-08-29T00:55:57.767Z,13.73
2022-08-29T00:58:35.353Z,20.13
2022-08-29T01:01:02.290Z,9.90
2022-08-29T01:03:33.195Z,13.68
2022-08-29T01:06:01.086Z,15.20
2022-08-29T01:08:28.058Z,18.02
2022-08-29T01:11:14.972Z,12.85
2022-08-29T01:13:45.235Z,19.23
2022-08-29T01:16:14.680Z,14.52
2022-08-29T01:18:45.477Z,13.60
2022-08-29T01:21:24.310Z,13.70
2022-08-29T01:24:06.085Z,9.88
2022-08-29T01:26:33.719Z,20.35
2022-08-29T01:29:00.587Z,19.77
2022-08-29T01:31:51.419Z,12.50
2022-08-29T01:34:24.893Z,13.90
2022-08-29T01:37:14.076Z,14.55
2022-08-29T01:39:42.583Z,16.63
2022-08-29T01:42:15.502Z,13.57
2022-08-29T01:44:49.475Z,13.48
2022-08-29T01:47:17.274Z,23.20
2022-08-29T01:49:45.460Z,11.05
2022-08-29T01:52:12.883Z,12.05
2022-08-29T01:54:41.925Z,16.13
2022-08-29T01:57:12.968Z,20.23
2022-08-29T01:59:41.017Z,16.13
2022-08-29T02:02:23.267Z,15.68
2022-08-29T02:04:50.056Z,20.98
2022-08-29T02:07:18.846Z,14.45
2022-08-29T02:09:46.150Z,15.70
2022-08-29T02:12:14.239Z,16.38
2022-08-29T02:14:41.629Z,12.70
2022-08-29T02:17:08.440Z,27.92
2022-08-29T02:19:37.162Z,15.80
2022-08-29T02:22:05.637Z,20.27
2022-08-29T02:24:32.754Z,20.08
2022-08-29T02:26:59.666Z,21.42
2022-08-29T02:29:37.203Z,12.98
2022-08-29T02:32:07.105Z,13.98
2022-08-29T02:34:34.687Z,14.40
2022-08-29T02:37:01.477Z,19.25
2022-08-29T02:39:28.180Z,20.85
2022-08-29T02:41:54.872Z,11.57
2022-08-29T02:44:21.701Z,14.88
2022-08-29T02:46:49.128Z,20.13
2022-08-29T02:49:16.097Z,16.98
2022-08-29T02:51:43.044Z,12.13
2022-08-29T02:54:09.927Z,20.73
2022-08-29T02:56:36.838Z,20.58
2022-08-29T02:59:03.675Z,15.27
2022-08-29T03:01:31.342Z,17.30
2022-08-29T03:03:58.329Z,14.15
2022-08-29T03:06:24.981Z,21.17
2022-08-29T03:08:51.660Z,15.40
2022-08-29T03:11:21.273Z,12.15
2022-08-29T03:13:48.056Z,22.67
2022-08-29T03:16:15.362Z,25.88
2022-08-29T03:18:42.228Z,15.75
2022-08-29T03:21:20.455Z,12.38
2022-08-29T03:23:49.071Z,18.85
2022-08-29T03:26:15.995Z,19.42
2022-08-29T03:28:42.674Z,14.40
2022-08-29T03:31:09.809Z,12.93
2022-08-29T03:33:37.091Z,22.75
2022-08-29T03:36:07.035Z,18.85
2022-08-29T03:38:40.732Z,18.50
2022-08-29T03:41:08.187Z,14.98
2022-08-29T03:43:34.880Z,24.98
2022-08-29T03:46:01.648Z,24.05
2022-08-29T03:48:28.833Z,14.15
2022-08-29T03:50:56.611Z,20.13
2022-08-29T03:53:24.162Z,17.38
2022-08-29T03:55:50.850Z,14.35
2022-08-29T03:58:17.579Z,17.83
2022-08-29T04:00:46.842Z,15.18
2022-08-29T04:03:13.522Z,15.65
2022-08-29T04:05:40.451Z,27.33
2022-08-29T04:08:08.521Z,19.65
2022-08-29T04:10:38.078Z,25.15
2022-08-29T04:13:05.988Z,16.02
2022-08-29T04:15:32.905Z,15.20
2022-08-29T04:18:01.791Z,14.50
2022-08-29T04:20:34.683Z,16.13
2022-08-29T04:23:01.328Z,17.33
2022-08-29T04:25:37.150Z,17.75
2022-08-29T04:28:10.625Z,24.83
2022-08-29T04:30:39.614Z,20.25
2022-08-29T04:33:06.400Z,14.38
2022-08-29T04:35:33.259Z,24.20
2022-08-29T04:37:59.958Z,17.73
2022-08-29T04:40:26.834Z,19.85
2022-08-29T04:42:53.584Z,20.35
2022-08-29T04:45:22.425Z,20.30
2022-08-29T04:47:49.659Z,16.08
2022-08-29T04:50:19.326Z,21.73
2022-08-29T04:52:47.133Z,22.20
2022-08-29T04:55:19.475Z,30.80
2022-08-29T04:57:48.441Z,19.83
2022-08-29T05:00:18.532Z,26.33
2022-08-29T05:02:45.345Z,18.92
2022-08-29T05:05:15.006Z,19.48
2022-08-29T05:07:43.070Z,16.38
2022-08-29T05:10:13.680Z,20.38
2022-08-29T05:12:40.998Z,14.48
2022-08-29T05:15:08.467Z,22.67
2022-08-29T05:17:35.247Z,16.48
2022-08-29T05:20:02.644Z,23.45
2022-08-29T05:22:29.268Z,16.73
2022-08-29T05:24:57.054Z,18.17
2022-08-29T05:27:24.175Z,24.05
2022-08-29T05:29:52.187Z,21.02
2022-08-29T05:32:20.815Z,16.52
2022-08-29T05:34:49.344Z,18.63
2022-08-29T05:37:19.588Z,13.10
2022-08-29T05:39:49.194Z,16.23
2022-08-29T05:42:17.783Z,21.90
2022-08-29T05:44:44.611Z,31.55
2022-08-29T05:47:13.730Z,22.67
2022-08-29T05:49:42.021Z,19.25
2022-08-29T05:52:09.127Z,23.38
2022-08-29T05:54:39.438Z,18.48
2022-08-29T05:57:08.383Z,21.05
2022-08-29T05:59:35.471Z,21.90
2022-08-29T06:02:02.189Z,17.60
2022-08-29T06:04:28.915Z,21.45
2022-08-29T06:06:55.609Z,32.22
2022-08-29T06:09:22.361Z,22.02
2022-08-29T06:11:51.596Z,19.08
2022-08-29T06:14:18.356Z,23.73
2022-08-29T06:16:45.473Z,21.60
2022-08-29T06:19:13.088Z,27.45
2022-08-29T06:21:39.735Z,21.58
2022-08-29T06:24:06.938Z,15.88
2022-08-29T06:26:34.366Z,21.60
2022-08-29T06:29:04.579Z,16.95
2022-08-29T06:31:31.445Z,18.90
2022-08-29T06:34:00.354Z,17.40
2022-08-29T06:36:28.625Z,19.90
2022-08-29T06:38:56.510Z,17.50
2022-08-29T06:41:24.926Z,23.33
2022-08-29T06:43:52.360Z,20.55
2022-08-29T06:46:25.536Z,29.85
2022-08-29T06:48:53.003Z,16.08
2022-08-29T06:51:20.873Z,17.30
2022-08-29T06:53:47.719Z,18.88
2022-08-29T06:56:14.517Z,14.68
2022-08-29T06:58:41.764Z,21.85
2022-08-29T07:01:14.560Z,20.13
2022-08-29T07:03:41.699Z,19.75
2022-08-29T07:06:09.544Z,13.65
2022-08-29T07:08:40.847Z,21.77
2022-08-29T07:11:11.588Z,27.75
2022-08-29T07:13:39.871Z,29.38
2022-08-29T07:16:16.550Z,27.77
2022-08-29T07:18:43.998Z,19.52
2022-08-29T07:21:18.198Z,28.95
2022-08-29T07:23:46.935Z,25.40
2022-08-29T07:26:21.508Z,27.17
2022-08-29T07:28:50.277Z,19.42
2022-08-29T07:31:17.711Z,20.63
2022-08-29T07:33:44.644Z,20.42
2022-08-29T07:36:12.347Z,22.08
2022-08-29T07:38:39.590Z,20.17
2022-08-29T07:41:09.100Z,25.52
2022-08-29T07:43:36.525Z,21.55
2022-08-29T07:46:15.090Z,21.10
2022-08-29T07:48:42.964Z,15.90
2022-08-29T07:51:12.699Z,18.70
2022-08-29T07:53:39.956Z,19.35
2022-08-29T07:56:12.780Z,25.58
2022-08-29T07:58:39.744Z,19.05
2022-08-29T08:01:07.117Z,18.33
2022-08-29T08:03:36.911Z,21.63
2022-08-29T08:06:07.219Z,24.48
2022-08-29T08:08:34.147Z,17.92
2022-08-29T08:11:02.832Z,22.63
2022-08-29T08:13:29.594Z,22.33
2022-08-29T08:15:56.240Z,18.00
2022-08-29T08:18:23.095Z,20.45
2022-08-29T08:20:49.691Z,16.70
2022-08-29T08:23:17.912Z,21.33
2022-08-29T08:25:45.280Z,17.45
2022-08-29T08:28:15.639Z,13.50
2022-08-29T08:30:42.990Z,19.65
2022-08-29T08:33:10.114Z,20.05
2022-08-29T08:35:42.012Z,18.98
2022-08-29T08:38:09.436Z,15.93
2022-08-29T08:40:43.970Z,21.75
2022-08-29T08:43:20.731Z,14.50
2022-08-29T08:45:55.394Z,16.83
2022-08-29T08:48:26.083Z,12.70
2022-08-29T08:50:54.844Z,16.02
2022-08-29T08:53:30.445Z,20.52
2022-08-29T08:55:59.915Z,18.55
2022-08-29T08:59:05.327Z,17.92
2022-08-29T09:01:33.839Z,13.77
2022-08-29T09:04:31.567Z,19.58
2022-08-29T09:07:28.046Z,17.10
2022-08-29T09:10:01.952Z,16.00
2022-08-29T09:12:51.325Z,18.40
2022-08-29T09:15:25.904Z,18.50
2022-08-29T09:18:01.100Z,23.58
2022-08-29T09:20:31.323Z,14.30
2022-08-29T09:23:02.700Z,12.98
2022-08-29T09:25:30.580Z,17.13
2022-08-29T09:27:58.532Z,19.85
2022-08-29T09:30:31.287Z,13.50
2022-08-29T09:32:57.893Z,20.48
2022-08-29T09:35:29.358Z,13.85
2022-08-29T09:37:59.599Z,16.60
2022-08-29T09:40:42.724Z,14.50
2022-08-29T09:43:17.918Z,10.90
2022-08-29T09:46:08.174Z,11.70
2022-08-29T09:48:37.117Z,15.20
2022-08-29T09:51:24.598Z,17.70
2022-08-29T09:54:13.236Z,13.13
2022-08-29T09:56:48.588Z,12.45
2022-08-29T09:59:45.874Z,12.55
2022-08-29T10:02:26.995Z,16.08
2022-08-29T10:05:12.063Z,15.57
2022-08-29T10:07:51.771Z,14.18
2022-08-29T10:10:20.019Z,13.05
2022-08-29T10:13:08.285Z,14.30
2022-08-29T10:15:50.843Z,14.25
2022-08-29T10:19:06.088Z,15.20
2022-08-29T10:21:35.580Z,11.48
2022-08-29T10:24:35.584Z,15.82
2022-08-29T10:27:13.467Z,21.45
2022-08-29T10:29:40.082Z,11.77
2022-08-29T10:32:12.355Z,12.48
2022-08-29T10:34:55.548Z,11.68
2022-08-29T10:37:28.508Z,10.32
2022-08-29T10:40:09.050Z,15.30
2022-08-29T10:42:39.716Z,8.57
2022-08-29T10:45:18.391Z,10.57
2022-08-29T10:48:10.373Z,15.55
2022-08-29T10:53:30.508Z,7.80
2022-08-29T10:56:22.987Z,10.40
2022-08-29T10:59:03.834Z,12.30
2022-08-29T11:01:36.608Z,8.02
2022-08-29T11:04:17.808Z,11.55
2022-08-29T11:07:13.671Z,11.90
2022-08-29T11:09:55.380Z,11.43
2022-08-29T11:12:46.707Z,13.20
2022-08-29T11:15:40.548Z,11.68
2022-08-29T11:18:22.404Z,11.20
2022-08-29T11:20:58.190Z,14.38
2022-08-29T11:23:38.738Z,11.05
2022-08-29T11:26:45.287Z,21.70
2022-08-29T11:29:17.841Z,13.75
2022-08-29T11:32:07.154Z,11.45
2022-08-29T11:34:39.794Z,14.30
2022-08-29T11:37:24.384Z,15.48
2022-08-29T11:40:02.684Z,10.73
2022-08-29T11:42:50.860Z,9.63
2022-08-29T11:45:35.600Z,13.35
2022-08-29T11:48:18.367Z,12.45
2022-08-29T11:50:45.558Z,10.90
2022-08-29T11:53:22.568Z,16.48
2022-08-29T11:56:14.357Z,11.77
2022-08-29T11:58:53.305Z,8.90
2022-08-29T12:01:26.083Z,14.75
2022-08-29T12:03:55.313Z,10.38
2022-08-29T12:06:31.173Z,10.15
2022-08-29T12:09:14.584Z,8.40
2022-08-29T12:12:07.363Z,9.55
2022-08-29T12:14:43.703Z,15.55
2022-08-29T12:17:58.546Z,8.70
2022-08-29T12:20:36.320Z,6.68
2022-08-29T12:23:18.078Z,8.18
2022-08-29T12:26:09.503Z,10.65
2022-08-29T12:28:43.783Z,12.20
2022-08-29T12:31:51.319Z,9.30
2022-08-29T12:34:46.296Z,11.27
2022-08-29T12:37:26.352Z,10.32
2022-08-29T12:40:05.363Z,9.10
2022-08-29T12:43:17.118Z,9.77
2022-08-29T12:45:46.308Z,12.45
2022-08-29T12:48:38.058Z,9.52
2022-08-29T12:53:34.937Z,13.95
2022-08-29T12:56:22.437Z,7.68
2022-08-29T12:58:52.009Z,10.13
2022-08-29T13:01:32.759Z,8.07
2022-08-29T13:04:12.961Z,6.60
2022-08-29T13:07:04.614Z,10.10
2022-08-29T13:09:32.824Z,11.57
2022-08-29T13:12:20.677Z,6.45
2022-08-29T13:14:48.388Z,14.95
2022-08-29T13:17:20.960Z,8.27
2022-08-29T13:20:25.681Z,10.98
2022-08-29T13:23:12.456Z,10.27
2022-08-29T13:26:01.507Z,11.23
2022-08-29T13:28:36.450Z,8.52
2022-08-29T13:31:13.692Z,5.25
2022-08-29T13:34:06.549Z,17.70
2022-08-29T13:37:00.970Z,5.90
2022-08-29T13:39:44.353Z,9.80
2022-08-29T13:42:18.400Z,6.05
2022-08-29T13:44:44.944Z,6.05
2022-08-29T13:47:14.284Z,5.28
2022-08-29T13:49:41.049Z,8.07
2022-08-29T13:52:10.281Z,9.90
2022-08-29T13:54:40.644Z,4.75
2022-08-29T13:57:11.336Z,9.95
2022-08-29T13:59:38.172Z,8.75
2022-08-29T14:02:10.052Z,11.80
2022-08-29T14:04:39.821Z,7.57
2022-08-29T14:07:11.938Z,6.28
2022-08-29T14:09:49.958Z,8.85
2022-08-29T14:12:19.817Z,8.55
2022-08-29T14:14:59.693Z,10.05
2022-08-29T14:17:39.385Z,11.73
2022-08-29T14:20:11.339Z,4.30
2022-08-29T14:22:38.141Z,7.22
2022-08-29T14:25:07.104Z,5.10
2022-08-29T14:27:33.799Z,8.18
2022-08-29T14:30:00.717Z,12.75
2022-08-29T14:32:27.451Z,5.35
2022-08-29T14:34:54.139Z,3.85
2022-08-29T14:37:21.476Z,5.93
2022-08-29T14:39:50.007Z,5.85
2022-08-29T14:42:17.651Z,10.90
2022-08-29T14:44:44.909Z,4.03
2022-08-29T14:47:11.569Z,7.35
2022-08-29T14:49:38.595Z,6.90
2022-08-29T14:52:05.692Z,5.10
2022-08-29T14:54:32.354Z,5.18
2022-08-29T14:56:59.277Z,7.90
2022-08-29T14:59:26.182Z,10.65
2022-08-29T15:01:59.768Z,3.38
2022-08-29T15:04:34.758Z,6.57
2022-08-29T15:07:07.733Z,9.85
2022-08-29T15:09:34.392Z,8.45
2022-08-29T15:12:01.381Z,7.47
2022-08-29T15:14:29.925Z,5.53
2022-08-29T15:16:56.608Z,9.35
2022-08-29T15:22:11.314Z,3.92
2022-08-29T15:24:38.227Z,13.00
2022-08-29T15:27:06.529Z,5.18
2022-08-29T15:29:33.804Z,4.85
2022-08-29T15:32:00.644Z,5.80
2022-08-29T15:34:28.817Z,6.50
2022-08-29T15:36:56.412Z,7.05
2022-08-29T15:39:23.714Z,4.22
2022-08-29T15:41:50.440Z,6.82
2022-08-29T15:44:17.133Z,7.25
2022-08-29T15:46:50.310Z,6.47
2022-08-29T15:49:19.438Z,2.80
2022-08-29T15:51:46.849Z,3.70
2022-08-29T15:54:14.591Z,5.10
2022-08-29T15:56:42.080Z,5.30
2022-08-29T15:59:10.767Z,10.98
2022-08-29T16:01:37.489Z,3.97
2022-08-29T16:04:08.386Z,4.43
2022-08-29T16:06:35.069Z,6.55
2022-08-29T16:09:02.241Z,6.72
2022-08-29T16:11:29.548Z,4.35
2022-08-29T16:14:34.605Z,6.03
2022-08-29T16:16:47.548Z,6.38
2022-08-29T16:19:14.192Z,4.47
2022-08-29T16:21:40.907Z,3.65
2022-08-29T16:24:10.385Z,5.70
2022-08-29T16:26:37.607Z,3.28
2022-08-29T16:29:06.020Z,11.50
2022-08-29T16:31:34.206Z,4.63
2022-08-29T16:34:00.968Z,4.57
2022-08-29T16:36:37.247Z,6.07
2022-08-29T16:39:05.405Z,2.10
2022-08-29T16:41:32.446Z,10.68
2022-08-29T16:43:59.279Z,3.33
2022-08-29T16:46:30.811Z,4.38
2022-08-29T16:48:57.877Z,4.03
2022-08-29T16:51:27.198Z,1.70
2022-08-29T16:53:54.321Z,4.07
2022-08-29T16:56:21.423Z,2.47
2022-08-29T16:59:04.645Z,3.30
2022-08-29T17:01:44.701Z,4.20
2022-08-29T17:04:14.809Z,3.33
2022-08-29T17:06:43.253Z,3.53
2022-08-29T17:09:10.098Z,1.70
2022-08-29T17:11:37.775Z,2.67
2022-08-29T17:14:05.535Z,1.88
2022-08-29T17:16:32.313Z,3.22
2022-08-29T17:18:59.955Z,2.13
2022-08-29T17:21:27.175Z,3.45
2022-08-29T17:23:55.396Z,1.52
2022-08-29T17:26:23.508Z,2.53
2022-08-29T17:28:50.913Z,2.47
2022-08-29T17:31:17.722Z,3.20
2022-08-29T17:33:46.071Z,3.35
2022-08-29T17:36:13.256Z,4.45
2022-08-29T17:38:42.340Z,3.20
2022-08-29T17:41:14.878Z,4.82
2022-08-29T17:43:44.726Z,1.23
2022-08-29T17:46:11.389Z,2.20
2022-08-29T17:48:38.126Z,4.53
2022-08-29T17:51:05.312Z,1.45
2022-08-29T17:53:35.211Z,5.38
2022-08-29T17:56:16.860Z,5.32
2022-08-29T17:58:43.976Z,1.67
2022-08-29T18:01:15.961Z,4.70
2022-08-29T18:03:44.822Z,4.30
2022-08-29T18:06:14.559Z,3.80
2022-08-29T18:08:48.226Z,3.42
2022-08-29T18:11:16.225Z,1.67
2022-08-29T18:13:43.434Z,3.50
2022-08-29T18:16:10.778Z,3.03
2022-08-29T18:18:38.799Z,2.03
2022-08-29T18:21:05.677Z,2.47
2022-08-29T18:23:32.650Z,8.55
2022-08-29T18:25:59.650Z,6.18
2022-08-29T18:28:26.377Z,3.03
2022-08-29T18:30:54.541Z,1.38
2022-08-29T18:33:21.778Z,4.38
2022-08-29T18:35:48.628Z,3.75
2022-08-29T18:38:16.290Z,2.67
2022-08-29T18:40:43.357Z,2.35
2022-08-29T18:43:13.060Z,5.32
2022-08-29T18:45:40.774Z,5.25
2022-08-29T18:48:08.041Z,6.05
2022-08-29T18:50:35.224Z,8.45
2022-08-29T18:53:23.208Z,3.78
2022-08-29T18:55:52.650Z,3.70
2022-08-29T18:58:26.411Z,8.40
2022-08-29T19:00:53.865Z,5.57
2022-08-29T19:03:20.724Z,3.78
2022-08-29T19:05:49.811Z,4.30
2022-08-29T19:08:19.272Z,4.28
2022-08-29T19:10:47.453Z,4.38
2022-08-29T19:13:15.568Z,6.50
2022-08-29T19:15:42.464Z,3.90
2022-08-29T19:18:10.633Z,5.68
2022-08-29T19:20:56.240Z,5.97
2022-08-29T19:23:23.400Z,3.20
2022-08-29T19:25:51.227Z,6.15
2022-08-29T19:28:19.912Z,3.67
2022-08-29T19:30:48.830Z,8.45
2022-08-29T19:33:25.745Z,6.85
2022-08-29T19:35:53.809Z,9.18
2022-08-29T19:38:22.597Z,8.45
2022-08-29T19:40:55.346Z,4.38
2022-08-29T19:43:28.460Z,4.28
2022-08-29T19:45:56.566Z,4.32
2022-08-29T19:48:23.849Z,5.60
2022-08-29T19:50:52.209Z,4.45
2022-08-29T19:53:26.475Z,6.38
2022-08-29T19:55:55.136Z,5.47
2022-08-29T19:58:22.915Z,6.07
2022-08-29T20:00:59.102Z,7.95
2022-08-29T20:03:27.583Z,7.25
2022-08-29T20:05:55.455Z,5.47
2022-08-29T20:08:22.654Z,7.15
2022-08-29T20:10:49.971Z,6.55
2022-08-29T20:13:17.403Z,6.47
2022-08-29T20:15:44.560Z,3.72
2022-08-29T20:18:11.562Z,5.25
2022-08-29T20:20:40.024Z,4.28
2022-08-29T20:23:07.942Z,7.93
2022-08-29T20:25:35.635Z,7.68
2022-08-29T20:28:02.804Z,5.70
2022-08-29T20:30:31.562Z,5.57
2022-08-29T20:32:58.740Z,7.40
2022-08-29T20:35:44.724Z,6.95
2022-08-29T20:38:11.613Z,5.10
2022-08-29T20:40:47.037Z,7.68
2022-08-29T20:43:15.164Z,5.40
2022-08-29T20:45:42.393Z,8.30
2022-08-29T20:48:10.110Z,6.40
2022-08-29T20:50:37.011Z,8.13
2022-08-29T20:53:04.711Z,4.55
2022-08-29T20:55:31.395Z,7.22
2022-08-29T20:57:58.036Z,4.05
2022-08-29T21:00:24.852Z,7.88
2022-08-29T21:03:10.399Z,9.70
2022-08-29T21:05:42.628Z,3.72
2022-08-29T21:08:18.397Z,4.55
2022-08-29T21:10:47.227Z,4.65
2022-08-29T21:13:15.218Z,4.97
2022-08-29T21:15:43.039Z,4.93
2022-08-29T21:18:11.861Z,3.53
2022-08-29T21:20:44.760Z,5.22
2022-08-29T21:23:22.241Z,8.88
2022-08-29T21:25:56.473Z,4.72
2022-08-29T21:28:24.975Z,4.25
2022-08-29T21:30:52.528Z,4.05
2022-08-29T21:33:20.587Z,3.40
2022-08-29T21:35:50.134Z,2.55
2022-08-29T21:38:17.800Z,3.35
2022-08-29T21:40:50.900Z,3.40
2022-08-29T21:43:19.614Z,2.80
2022-08-29T21:45:47.264Z,3.38
2022-08-29T21:48:13.938Z,2.92
2022-08-29T21:50:40.572Z,3.13
2022-08-29T21:53:07.524Z,2.83
2022-08-29T21:55:34.256Z,3.55
2022-08-29T21:58:01.744Z,5.72
2022-08-29T22:00:34.305Z,3.92
2022-08-29T22:03:06.860Z,3.10
2022-08-29T22:05:33.899Z,3.45
2022-08-29T22:08:03.306Z,4.80
2022-08-29T22:10:33.457Z,2.45
2022-08-29T22:13:00.777Z,2.75
2022-08-29T22:15:46.337Z,2.47
2022-08-29T22:18:15.967Z,3.78
2022-08-29T22:20:44.071Z,4.25
2022-08-29T22:23:11.081Z,4.78
2022-08-29T22:25:37.807Z,2.65
2022-08-29T22:28:05.490Z,3.95
2022-08-29T22:30:32.726Z,3.53
2022-08-29T22:33:01.292Z,2.83
2022-08-29T22:35:28.873Z,2.60
2022-08-29T22:37:55.726Z,3.13
2022-08-29T22:40:23.697Z,2.47
2022-08-29T22:42:50.497Z,3.15
2022-08-29T22:45:18.896Z,3.60
2022-08-29T22:47:46.858Z,3.25
2022-08-29T22:50:19.333Z,2.58
2022-08-29T22:52:47.095Z,6.35
2022-08-29T22:55:16.345Z,2.97
2022-08-29T22:57:45.225Z,2.53
2022-08-29T23:00:16.315Z,3.15
2022-08-29T23:02:43.583Z,5.25
2022-08-29T23:05:10.399Z,2.80
2022-08-29T23:07:37.250Z,3.63
2022-08-29T23:10:05.915Z,2.75
2022-08-29T23:12:32.793Z,2.80
2022-08-29T23:14:59.457Z,2.17
2022-08-29T23:17:26.208Z,3.88
2022-08-29T23:19:52.848Z,2.65
2022-08-29T23:22:20.504Z,2.80
2022-08-29T23:24:57.937Z,2.35
2022-08-29T23:27:29.499Z,2.70
2022-08-29T23:29:56.678Z,2.97
2022-08-29T23:32:23.462Z,3.20
2022-08-29T23:34:50.096Z,2.50
2022-08-29T23:37:16.789Z,3.13
2022-08-29T23:39:43.416Z,3.17
2022-08-29T23:42:10.048Z,2.75
2022-08-29T23:44:36.770Z,2.47
2022-08-29T23:47:03.731Z,4.63
2022-08-29T23:49:30.699Z,4.10
2022-08-29T23:51:57.357Z,3.65
2022-08-29T23:54:26.040Z,2.50
2022-08-29T23:56:53.519Z,2.35
2022-08-29T23:59:38.671Z,4.32
